createdAt,value
2023-04-24T00:00:37.211Z,87.70
2023-04-24T00:03:05.028Z,88.00
2023-04-24T00:05:32.579Z,87.93
2023-04-24T00:08:00.088Z,87.62
2023-04-24T00:10:27.558Z,87.88
2023-04-24T00:12:56.400Z,87.59
2023-04-24T00:15:24.123Z,87.93
2023-04-24T00:17:52.702Z,88.30
2023-04-24T00:20:20.349Z,87.70
2023-04-24T00:22:47.820Z,87.73
2023-04-24T00:25:15.358Z,88.59
2023-04-24T00:27:42.861Z,88.83
2023-04-24T00:30:12.517Z,89.36
2023-04-24T00:32:40.038Z,89.16
2023-04-24T00:35:08.407Z,88.74
2023-04-24T00:37:35.944Z,89.13
2023-04-24T00:40:03.926Z,89.38
2023-04-24T00:42:31.456Z,89.57
2023-04-24T00:44:58.933Z,89.21
2023-04-24T00:47:27.767Z,89.25
2023-04-24T00:49:55.294Z,88.95
2023-04-24T00:52:25.245Z,89.17
2023-04-24T00:54:52.779Z,88.75
2023-04-24T00:57:20.345Z,88.39
2023-04-24T00:59:48.153Z,87.68
2023-04-24T01:02:16.658Z,87.23
2023-04-24T01:04:45.720Z,87.61
2023-04-24T01:07:14.005Z,87.41
2023-04-24T01:09:42.857Z,86.78
2023-04-24T01:12:10.804Z,86.85
2023-04-24T01:14:39.222Z,87.34
2023-04-24T01:17:06.792Z,86.78
2023-04-24T01:19:34.310Z,86.88
2023-04-24T01:22:04.735Z,86.83
2023-04-24T01:24:33.642Z,86.48
2023-04-24T01:27:02.170Z,86.71
2023-04-24T01:29:29.884Z,86.35
2023-04-24T01:31:59.325Z,86.33
2023-04-24T01:34:27.272Z,86.11
2023-04-24T01:36:54.873Z,86.32
2023-04-24T01:39:24.173Z,85.56
2023-04-24T01:41:53.208Z,85.74
2023-04-24T01:44:20.696Z,85.50
2023-04-24T01:46:49.228Z,85.82
2023-04-24T01:49:16.854Z,85.98
2023-04-24T01:51:46.372Z,85.94
2023-04-24T01:54:14.249Z,85.61
2023-04-24T01:56:43.442Z,86.09
2023-04-24T01:59:13.302Z,86.00
2023-04-24T02:01:41.081Z,86.08
2023-04-24T02:04:09.856Z,86.09
2023-04-24T02:06:37.505Z,85.86
2023-04-24T02:09:05.254Z,86.04
2023-04-24T02:11:32.776Z,86.36
2023-04-24T02:14:00.390Z,85.96
2023-04-24T02:16:31.432Z,86.01
2023-04-24T02:18:59.067Z,85.80
2023-04-24T02:21:26.552Z,85.75
2023-04-24T02:23:54.173Z,86.02
2023-04-24T02:26:21.710Z,85.74
2023-04-24T02:28:49.481Z,86.17
2023-04-24T02:31:17.196Z,86.21
2023-04-24T02:33:46.015Z,86.01
2023-04-24T02:36:14.196Z,86.12
2023-04-24T02:38:42.256Z,85.38
2023-04-24T02:41:09.854Z,85.96
2023-04-24T02:43:37.319Z,85.88
2023-04-24T02:46:05.568Z,86.03
2023-04-24T02:48:33.062Z,86.04
2023-04-24T02:51:01.945Z,85.93
2023-04-24T02:53:30.855Z,85.47
2023-04-24T02:55:58.569Z,85.92
2023-04-24T02:58:26.105Z,86.12
2023-04-24T03:00:55.768Z,85.68
2023-04-24T03:03:23.407Z,85.98
2023-04-24T03:05:51.402Z,86.67
2023-04-24T03:08:20.649Z,85.78
2023-04-24T03:10:48.501Z,85.52
2023-04-24T03:13:17.340Z,85.70
2023-04-24T03:15:44.872Z,85.49
2023-04-24T03:18:12.475Z,86.07
2023-04-24T03:20:40.405Z,85.81
2023-04-24T03:23:08.662Z,85.68
2023-04-24T03:25:39.829Z,86.10
2023-04-24T03:28:07.552Z,85.75
2023-04-24T03:30:40.937Z,86.04
2023-04-24T03:33:09.246Z,86.12
2023-04-24T03:35:39.991Z,85.97
2023-04-24T03:38:11.559Z,85.92
2023-04-24T03:40:52.433Z,85.58
2023-04-24T03:43:38.937Z,85.84
2023-04-24T03:46:07.935Z,85.67
2023-04-24T03:48:39.469Z,85.52
2023-04-24T03:51:08.708Z,86.21
2023-04-24T03:53:38.038Z,86.21
2023-04-24T03:56:07.041Z,85.71
2023-04-24T03:58:35.504Z,86.17
2023-04-24T04:01:03.779Z,86.13
2023-04-24T04:03:44.951Z,85.96
2023-04-24T04:06:14.018Z,86.05
2023-04-24T04:08:42.371Z,86.08
2023-04-24T04:11:12.416Z,86.09
2023-04-24T04:13:39.890Z,86.18
2023-04-24T04:16:07.681Z,86.05
2023-04-24T04:18:35.773Z,86.30
2023-04-24T04:21:07.285Z,85.65
2023-04-24T04:23:35.268Z,85.49
2023-04-24T04:26:13.435Z,85.68
2023-04-24T04:28:54.116Z,85.51
2023-04-24T04:31:21.927Z,85.54
2023-04-24T04:33:50.432Z,85.36
2023-04-24T04:36:18.422Z,85.73
2023-04-24T04:38:50.526Z,85.52
2023-04-24T04:41:41.453Z,85.88
2023-04-24T04:44:10.784Z,86.01
2023-04-24T04:46:39.467Z,85.88
2023-04-24T04:49:14.126Z,86.06
2023-04-24T04:51:43.057Z,86.32
2023-04-24T04:54:10.928Z,86.12
2023-04-24T04:56:40.942Z,86.05
2023-04-24T04:59:08.521Z,85.88
2023-04-24T05:01:38.948Z,85.67
2023-04-24T05:04:08.703Z,85.80
2023-04-24T05:06:36.573Z,85.13
2023-04-24T05:09:05.962Z,85.00
2023-04-24T05:11:45.389Z,84.76
2023-04-24T05:14:14.292Z,84.42
2023-04-24T05:16:43.880Z,84.35
2023-04-24T05:19:14.877Z,83.92
2023-04-24T05:21:42.956Z,83.69
2023-04-24T05:24:11.907Z,83.55
2023-04-24T05:27:06.678Z,83.13
2023-04-24T05:29:39.149Z,83.52
2023-04-24T05:32:07.670Z,83.94
2023-04-24T05:34:35.995Z,83.65
2023-04-24T05:37:04.301Z,83.74
2023-04-24T05:39:31.808Z,83.81
2023-04-24T05:42:02.302Z,83.75
2023-04-24T05:44:31.193Z,84.10
2023-04-24T05:46:58.831Z,84.62
2023-04-24T05:49:26.426Z,84.72
2023-04-24T05:51:54.562Z,84.72
2023-04-24T05:54:22.090Z,84.70
2023-04-24T05:56:49.860Z,84.57
2023-04-24T05:59:25.463Z,84.48
2023-04-24T06:01:54.467Z,84.60
2023-04-24T06:04:25.770Z,84.51
2023-04-24T06:06:56.746Z,84.09
2023-04-24T06:09:24.368Z,84.23
2023-04-24T06:11:53.699Z,84.26
2023-04-24T06:14:23.922Z,83.85
2023-04-24T06:17:15.745Z,84.35
2023-04-24T06:19:43.757Z,83.49
2023-04-24T06:22:11.848Z,83.72
2023-04-24T06:24:39.360Z,83.31
2023-04-24T06:27:06.896Z,83.02
2023-04-24T06:29:35.059Z,82.97
2023-04-24T06:32:02.625Z,82.42
2023-04-24T06:34:31.756Z,81.90
2023-04-24T06:36:59.277Z,80.92
2023-04-24T06:39:26.742Z,80.82
2023-04-24T06:41:54.228Z,79.70
2023-04-24T06:44:21.688Z,79.47
2023-04-24T06:46:49.189Z,79.45
2023-04-24T06:49:17.388Z,77.19
2023-04-24T06:51:46.195Z,77.16
2023-04-24T06:54:13.747Z,77.30
2023-04-24T06:56:41.276Z,76.77
2023-04-24T06:59:08.788Z,76.72
2023-04-24T07:01:36.368Z,76.37
2023-04-24T07:04:04.003Z,76.20
2023-04-24T07:06:31.745Z,76.46
2023-04-24T07:09:01.170Z,75.22
2023-04-24T07:11:30.188Z,75.70
2023-04-24T07:13:57.831Z,74.85
2023-04-24T07:16:25.416Z,75.49
2023-04-24T07:18:52.919Z,75.68
2023-04-24T07:21:20.389Z,75.37
2023-04-24T07:23:47.889Z,76.01
2023-04-24T07:26:16.938Z,75.21
2023-04-24T07:28:44.557Z,74.39
2023-04-24T07:31:13.298Z,74.48
2023-04-24T07:33:40.813Z,73.07
2023-04-24T07:36:08.371Z,74.14
2023-04-24T07:38:35.870Z,73.45
2023-04-24T07:41:03.610Z,73.70
2023-04-24T07:43:32.457Z,73.57
2023-04-24T07:46:00.119Z,73.61
2023-04-24T07:48:27.613Z,73.60
2023-04-24T07:50:55.173Z,73.65
2023-04-24T07:53:22.721Z,73.29
2023-04-24T07:55:50.260Z,73.07
2023-04-24T07:58:18.002Z,73.28
2023-04-24T08:00:47.290Z,73.19
2023-04-24T08:03:14.906Z,72.45
2023-04-24T08:05:44.031Z,72.68
2023-04-24T08:08:11.674Z,72.94
2023-04-24T08:10:41.587Z,72.76
2023-04-24T08:13:09.110Z,72.24
2023-04-24T08:15:36.688Z,73.04
2023-04-24T08:18:05.754Z,73.13
2023-04-24T08:20:33.281Z,73.51
2023-04-24T08:23:00.748Z,73.96
2023-04-24T08:25:28.320Z,74.31
2023-04-24T08:27:56.366Z,74.16
2023-04-24T08:30:24.200Z,74.86
2023-04-24T08:32:51.732Z,74.23
2023-04-24T08:35:20.826Z,73.82
2023-04-24T08:37:48.314Z,71.86
2023-04-24T08:40:17.320Z,72.26
2023-04-24T08:42:45.941Z,71.70
2023-04-24T08:45:14.274Z,70.74
2023-04-24T08:47:42.297Z,68.12
2023-04-24T08:50:10.823Z,67.49
2023-04-24T08:52:39.719Z,64.82
2023-04-24T08:55:08.024Z,64.28
2023-04-24T08:57:36.901Z,63.33
2023-04-24T09:00:05.654Z,63.27
2023-04-24T09:02:35.315Z,63.51
2023-04-24T09:05:03.904Z,61.29
2023-04-24T09:07:32.358Z,60.68
2023-04-24T09:10:01.354Z,60.39
2023-04-24T09:12:28.959Z,60.59
2023-04-24T09:14:56.866Z,60.47
2023-04-24T09:17:24.736Z,61.06
2023-04-24T09:19:52.201Z,59.93
2023-04-24T09:22:19.759Z,59.80
2023-04-24T09:24:47.591Z,59.26
2023-04-24T09:27:18.744Z,59.32
2023-04-24T09:29:55.583Z,59.48
2023-04-24T09:32:26.117Z,58.35
2023-04-24T09:35:08.263Z,58.37
2023-04-24T09:37:37.720Z,58.41
2023-04-24T09:40:13.493Z,59.26
2023-04-24T09:42:42.426Z,58.13
2023-04-24T09:45:15.613Z,57.22
2023-04-24T09:47:44.411Z,56.61
2023-04-24T09:50:14.116Z,57.46
2023-04-24T09:52:43.939Z,54.85
2023-04-24T09:55:18.819Z,53.86
2023-04-24T09:57:52.212Z,53.81
2023-04-24T10:00:29.352Z,53.00
2023-04-24T10:02:58.466Z,53.64
2023-04-24T10:05:28.094Z,54.01
2023-04-24T10:07:59.324Z,54.80
2023-04-24T10:10:26.946Z,55.95
2023-04-24T10:12:56.673Z,55.08
2023-04-24T10:15:24.409Z,55.88
2023-04-24T10:17:54.303Z,54.90
2023-04-24T10:20:23.353Z,54.88
2023-04-24T10:22:52.423Z,55.56
2023-04-24T10:25:21.864Z,55.70
2023-04-24T10:27:50.853Z,54.55
2023-04-24T10:30:20.328Z,53.21
2023-04-24T10:32:48.172Z,53.13
2023-04-24T10:35:16.930Z,50.57
2023-04-24T10:37:47.036Z,50.81
2023-04-24T10:40:19.547Z,50.49
2023-04-24T10:42:49.625Z,50.09
2023-04-24T10:45:23.242Z,49.29
2023-04-24T10:47:55.448Z,49.66
2023-04-24T10:50:23.055Z,48.65
2023-04-24T10:52:52.257Z,48.94
2023-04-24T10:55:41.260Z,48.98
2023-04-24T10:58:08.753Z,48.68
2023-04-24T11:00:41.281Z,48.59
2023-04-24T11:03:14.986Z,49.05
2023-04-24T11:06:01.732Z,48.39
2023-04-24T11:08:31.628Z,48.68
2023-04-24T11:11:03.863Z,47.52
2023-04-24T11:14:12.027Z,46.87
2023-04-24T11:16:48.398Z,47.76
2023-04-24T11:19:26.094Z,48.30
2023-04-24T11:22:01.371Z,48.75
2023-04-24T11:24:31.658Z,48.58
2023-04-24T11:27:00.466Z,46.87
2023-04-24T11:29:45.447Z,46.93
2023-04-24T11:32:25.352Z,48.10
2023-04-24T11:34:54.219Z,48.91
2023-04-24T11:37:21.876Z,49.26
2023-04-24T11:39:52.905Z,48.76
2023-04-24T11:42:20.736Z,48.68
2023-04-24T11:44:49.385Z,48.36
2023-04-24T11:47:18.260Z,48.17
2023-04-24T11:49:45.941Z,49.21
2023-04-24T11:52:17.564Z,49.78
2023-04-24T11:54:50.008Z,50.40
2023-04-24T11:57:17.705Z,50.72
2023-04-24T11:59:45.263Z,50.63
2023-04-24T12:02:23.932Z,50.64
2023-04-24T12:04:52.208Z,50.59
2023-04-24T12:07:19.992Z,50.94
2023-04-24T12:09:49.307Z,51.16
2023-04-24T12:12:19.666Z,51.67
2023-04-24T12:14:49.792Z,52.54
2023-04-24T12:17:17.505Z,52.84
2023-04-24T12:19:50.176Z,53.22
2023-04-24T12:22:17.958Z,53.20
2023-04-24T12:25:01.863Z,52.39
2023-04-24T12:27:32.141Z,51.95
2023-04-24T12:30:00.810Z,52.63
2023-04-24T12:32:28.495Z,52.52
2023-04-24T12:34:57.713Z,53.17
2023-04-24T12:37:26.633Z,52.61
2023-04-24T12:40:01.298Z,51.79
2023-04-24T12:42:29.311Z,50.45
2023-04-24T12:45:02.561Z,49.97
2023-04-24T12:47:30.735Z,49.06
2023-04-24T12:49:59.803Z,49.35
2023-04-24T12:52:28.542Z,49.11
2023-04-24T12:54:57.921Z,48.60
2023-04-24T12:57:25.993Z,49.08
2023-04-24T12:59:56.507Z,49.42
2023-04-24T13:02:24.368Z,49.64
2023-04-24T13:04:52.722Z,50.77
2023-04-24T13:07:21.701Z,51.36
2023-04-24T13:09:50.897Z,51.47
2023-04-24T13:12:18.583Z,51.79
2023-04-24T13:14:47.202Z,52.37
2023-04-24T13:17:15.175Z,51.90
2023-04-24T13:19:44.965Z,52.74
2023-04-24T13:22:13.323Z,52.42
2023-04-24T13:24:42.951Z,52.60
2023-04-24T13:27:11.014Z,52.22
2023-04-24T13:29:38.750Z,50.03
2023-04-24T13:32:06.475Z,49.71
2023-04-24T13:34:35.460Z,49.76
2023-04-24T13:37:04.669Z,48.84
2023-04-24T13:39:32.250Z,49.04
2023-04-24T13:42:03.234Z,49.13
2023-04-24T13:44:32.037Z,49.98
2023-04-24T13:47:00.007Z,49.70
2023-04-24T13:49:28.123Z,49.73
2023-04-24T13:51:56.131Z,49.20
2023-04-24T13:54:24.434Z,49.14
2023-04-24T13:56:52.967Z,49.25
2023-04-24T13:59:22.321Z,48.77
2023-04-24T14:01:50.112Z,47.95
2023-04-24T14:04:18.177Z,48.39
2023-04-24T14:06:45.941Z,48.48
2023-04-24T14:09:13.766Z,47.92
2023-04-24T14:11:41.564Z,48.65
2023-04-24T14:14:09.461Z,49.34
2023-04-24T14:16:38.351Z,48.95
2023-04-24T14:19:06.383Z,49.39
2023-04-24T14:21:34.504Z,49.54
2023-04-24T14:24:02.114Z,50.35
2023-04-24T14:26:29.681Z,50.58
2023-04-24T14:29:04.054Z,50.32
2023-04-24T14:31:40.259Z,50.04
2023-04-24T14:34:07.784Z,49.63
2023-04-24T14:36:35.287Z,48.99
2023-04-24T14:39:06.063Z,49.14
2023-04-24T14:41:36.434Z,49.46
2023-04-24T14:44:04.564Z,50.29
2023-04-24T14:46:32.173Z,50.69
2023-04-24T14:49:01.276Z,50.27
2023-04-24T14:51:28.862Z,50.79
2023-04-24T14:53:56.376Z,51.73
2023-04-24T14:56:23.896Z,52.10
2023-04-24T14:58:51.383Z,52.40
2023-04-24T15:01:19.061Z,53.38
2023-04-24T15:03:47.165Z,54.83
2023-04-24T15:06:16.454Z,55.12
2023-04-24T15:08:44.013Z,56.69
2023-04-24T15:11:12.119Z,56.96
2023-04-24T15:13:39.770Z,57.17
2023-04-24T15:16:07.705Z,56.93
2023-04-24T15:18:35.325Z,56.43
2023-04-24T15:21:02.848Z,56.42
2023-04-24T15:23:32.522Z,55.77
2023-04-24T15:26:02.152Z,55.57
2023-04-24T15:28:29.664Z,56.60
2023-04-24T15:30:57.149Z,56.49
2023-04-24T15:33:25.085Z,56.13
2023-04-24T15:35:52.561Z,55.58
2023-04-24T15:38:20.059Z,55.89
2023-04-24T15:40:49.295Z,55.46
2023-04-24T15:43:17.100Z,56.25
2023-04-24T15:45:45.294Z,57.76
2023-04-24T15:48:13.318Z,58.47
2023-04-24T15:50:40.849Z,59.78
2023-04-24T15:53:08.349Z,60.90
2023-04-24T15:55:37.335Z,61.68
2023-04-24T15:58:06.358Z,61.52
2023-04-24T16:00:35.494Z,60.82
2023-04-24T16:03:03.220Z,61.42
2023-04-24T16:05:31.010Z,61.14
2023-04-24T16:07:58.761Z,61.63
2023-04-24T16:10:26.259Z,61.33
2023-04-24T16:12:54.539Z,61.55
2023-04-24T16:15:23.381Z,59.93
2023-04-24T16:17:51.335Z,59.02
2023-04-24T16:20:19.148Z,60.44
2023-04-24T16:22:46.724Z,61.22
2023-04-24T16:25:14.275Z,61.39
2023-04-24T16:27:41.921Z,61.36
2023-04-24T16:30:10.497Z,61.38
2023-04-24T16:32:39.384Z,61.60
2023-04-24T16:35:07.351Z,61.40
2023-04-24T16:37:34.850Z,61.04
2023-04-24T16:40:02.804Z,61.67
2023-04-24T16:42:30.456Z,61.90
2023-04-24T16:44:57.945Z,60.84
2023-04-24T16:47:25.460Z,61.34
2023-04-24T16:49:54.552Z,61.04
2023-04-24T16:52:22.143Z,61.64
2023-04-24T16:54:49.617Z,61.44
2023-04-24T16:57:17.210Z,61.23
2023-04-24T16:59:44.669Z,61.52
2023-04-24T17:02:12.195Z,62.34
2023-04-24T17:04:39.754Z,63.29
2023-04-24T17:07:08.850Z,64.09
2023-04-24T17:09:36.332Z,64.06
2023-04-24T17:12:03.830Z,64.50
2023-04-24T17:14:31.438Z,64.52
2023-04-24T17:16:59.324Z,64.95
2023-04-24T17:19:26.995Z,65.26
2023-04-24T17:21:54.511Z,65.80
2023-04-24T17:24:23.376Z,66.13
2023-04-24T17:26:51.151Z,66.46
2023-04-24T17:29:19.373Z,66.83
2023-04-24T17:31:46.939Z,66.79
2023-04-24T17:34:14.442Z,67.31
2023-04-24T17:36:41.945Z,67.63
2023-04-24T17:39:10.757Z,68.12
2023-04-24T17:41:39.581Z,68.95
2023-04-24T17:44:07.202Z,68.54
2023-04-24T17:46:35.207Z,69.04
2023-04-24T17:49:02.849Z,69.12
2023-04-24T17:51:30.428Z,68.68
2023-04-24T17:53:57.917Z,68.85
2023-04-24T17:56:25.728Z,68.58
2023-04-24T17:58:54.775Z,69.01
2023-04-24T18:01:24.156Z,69.27
2023-04-24T18:03:52.740Z,69.02
2023-04-24T18:06:20.416Z,68.45
2023-04-24T18:08:48.104Z,68.42
2023-04-24T18:11:15.860Z,68.63
2023-04-24T18:13:43.360Z,68.72
2023-04-24T18:16:12.343Z,68.29
2023-04-24T18:18:40.088Z,68.34
2023-04-24T18:21:07.615Z,68.26
2023-04-24T18:23:35.998Z,68.02
2023-04-24T18:26:03.540Z,68.32
2023-04-24T18:28:34.561Z,68.33
2023-04-24T18:31:02.413Z,68.63
2023-04-24T18:33:31.294Z,68.73
2023-04-24T18:35:58.840Z,68.94
2023-04-24T18:38:27.026Z,69.14
2023-04-24T18:40:54.543Z,69.50
2023-04-24T18:43:22.165Z,69.51
2023-04-24T18:45:49.689Z,69.89
2023-04-24T18:48:17.366Z,70.34
2023-04-24T18:50:46.179Z,70.33
2023-04-24T18:53:16.754Z,70.35
2023-04-24T18:55:44.226Z,71.03
2023-04-24T18:58:11.914Z,71.44
2023-04-24T19:00:39.454Z,71.71
2023-04-24T19:03:08.674Z,71.45
2023-04-24T19:05:36.347Z,71.71
2023-04-24T19:08:05.171Z,71.89
2023-04-24T19:10:34.328Z,72.33
2023-04-24T19:13:02.208Z,72.47
2023-04-24T19:15:29.936Z,72.73
2023-04-24T19:17:57.642Z,73.00
2023-04-24T19:20:26.284Z,73.16
2023-04-24T19:22:53.837Z,73.22
2023-04-24T19:25:22.825Z,73.08
2023-04-24T19:27:50.373Z,73.51
2023-04-24T19:30:19.946Z,73.70
2023-04-24T19:32:47.498Z,73.48
2023-04-24T19:35:15.112Z,73.75
2023-04-24T19:37:42.592Z,73.90
2023-04-24T19:40:10.765Z,74.23
2023-04-24T19:42:44.199Z,74.12
2023-04-24T19:45:13.081Z,74.22
2023-04-24T19:47:40.741Z,74.46
2023-04-24T19:50:09.207Z,74.61
2023-04-24T19:52:36.792Z,74.25
2023-04-24T19:55:04.507Z,74.36
2023-04-24T19:57:32.121Z,74.80
2023-04-24T20:00:01.003Z,74.86
2023-04-24T20:02:28.636Z,74.99
2023-04-24T20:04:56.244Z,75.33
2023-04-24T20:07:23.921Z,75.32
2023-04-24T20:09:51.411Z,75.60
2023-04-24T20:12:19.478Z,75.56
2023-04-24T20:14:47.813Z,75.42
2023-04-24T20:17:16.670Z,75.41
2023-04-24T20:19:44.794Z,75.48
2023-04-24T20:22:13.417Z,75.71
2023-04-24T20:24:41.375Z,75.56
2023-04-24T20:27:08.911Z,75.45
2023-04-24T20:29:36.422Z,75.91
2023-04-24T20:32:04.025Z,76.37
2023-04-24T20:34:32.864Z,75.99
2023-04-24T20:37:00.856Z,76.21
2023-04-24T20:39:28.332Z,76.59
2023-04-24T20:41:55.812Z,76.49
2023-04-24T20:44:23.384Z,76.56
2023-04-24T20:46:51.006Z,77.12
2023-04-24T20:49:18.532Z,77.09
2023-04-24T20:51:47.351Z,77.06
2023-04-24T20:54:15.005Z,77.15
2023-04-24T20:56:42.512Z,77.77
2023-04-24T20:59:10.036Z,77.50
2023-04-24T21:01:37.623Z,77.59
2023-04-24T21:04:05.493Z,77.84
2023-04-24T21:06:33.013Z,77.72
2023-04-24T21:09:01.925Z,77.76
2023-04-24T21:11:29.482Z,77.64
2023-04-24T21:13:59.263Z,77.79
2023-04-24T21:16:27.090Z,77.52
2023-04-24T21:18:54.747Z,78.14
2023-04-24T21:21:22.333Z,78.06
2023-04-24T21:23:49.950Z,78.31
2023-04-24T21:26:18.948Z,78.40
2023-04-24T21:28:46.659Z,78.02
2023-04-24T21:31:14.131Z,78.23
2023-04-24T21:33:41.643Z,78.17
2023-04-24T21:36:09.413Z,77.75
2023-04-24T21:38:37.002Z,77.71
2023-04-24T21:41:04.541Z,77.83
2023-04-24T21:43:43.800Z,77.62
2023-04-24T21:46:11.904Z,78.74
2023-04-24T21:48:39.386Z,78.57
2023-04-24T21:51:06.954Z,78.62
2023-04-24T21:53:34.523Z,79.17
2023-04-24T21:56:02.116Z,79.73
2023-04-24T21:58:29.760Z,79.47
2023-04-24T22:00:58.932Z,79.80
2023-04-24T22:03:26.674Z,80.20
2023-04-24T22:05:54.264Z,79.73
2023-04-24T22:08:21.872Z,80.15
2023-04-24T22:10:49.478Z,79.70
2023-04-24T22:13:16.958Z,79.70
2023-04-24T22:15:44.457Z,79.52
2023-04-24T22:18:13.407Z,79.26
2023-04-24T22:20:41.024Z,79.31
2023-04-24T22:23:08.757Z,79.36
2023-04-24T22:25:36.280Z,79.39
2023-04-24T22:28:03.928Z,79.34
2023-04-24T22:30:31.493Z,79.84
2023-04-24T22:32:59.116Z,79.49
2023-04-24T22:35:27.953Z,79.58
2023-04-24T22:37:55.904Z,79.45
2023-04-24T22:40:23.682Z,79.44
2023-04-24T22:42:51.240Z,79.13
2023-04-24T22:45:18.864Z,78.79
2023-04-24T22:47:46.438Z,79.03
2023-04-24T22:50:13.969Z,78.77
2023-04-24T22:52:43.831Z,78.61
2023-04-24T22:55:11.999Z,79.03
2023-04-24T22:57:39.496Z,79.41
2023-04-24T23:00:11.097Z,79.17
2023-04-24T23:02:39.599Z,79.38
2023-04-24T23:05:07.861Z,79.36
2023-04-24T23:07:35.727Z,79.50
2023-04-24T23:10:04.909Z,79.33
2023-04-24T23:12:32.495Z,79.29
2023-04-24T23:15:00.160Z,79.55
2023-04-24T23:17:27.684Z,79.51
2023-04-24T23:19:55.528Z,79.77
2023-04-24T23:22:23.025Z,79.81
2023-04-24T23:24:51.449Z,79.64
2023-04-24T23:27:20.268Z,79.37
2023-04-24T23:29:47.755Z,79.33
2023-04-24T23:32:15.511Z,79.37
2023-04-24T23:34:43.080Z,78.88
2023-04-24T23:37:10.665Z,78.79
2023-04-24T23:39:38.207Z,79.15
2023-04-24T23:42:07.646Z,79.54
2023-04-24T23:44:36.467Z,79.85
2023-04-24T23:47:04.371Z,79.45
2023-04-24T23:49:31.860Z,79.58
2023-04-24T23:51:59.367Z,79.30
2023-04-24T23:54:27.079Z,79.72
2023-04-24T23:56:54.591Z,79.90
2023-04-24T23:59:22.149Z,79.55
